createdAt,value
2023-01-17T04:12:54.681Z,98833.10
2023-01-17T04:15:21.437Z,98836.29
2023-01-17T04:17:48.070Z,98837.84
2023-01-17T04:20:34.061Z,98836.03
2023-01-17T04:23:00.924Z,98837.92
2023-01-17T04:25:30.199Z,98837.56
2023-01-17T04:28:00.141Z,98841.58
2023-01-17T04:30:27.389Z,98841.41
2023-01-17T04:32:54.499Z,98843.02
2023-01-17T04:35:21.284Z,98837.75
2023-01-17T04:37:47.994Z,98838.02
2023-01-17T04:40:14.838Z,98834.81
2023-01-17T04:42:41.669Z,98829.64
2023-01-17T04:45:08.745Z,98829.02
2023-01-17T04:47:35.407Z,98831.42
2023-01-17T04:50:02.151Z,98829.08
2023-01-17T04:52:28.818Z,98831.25
2023-01-17T04:54:55.453Z,98829.81
2023-01-17T04:57:22.177Z,98827.87
2023-01-17T04:59:48.840Z,98827.14
2023-01-17T05:02:15.648Z,98832.86
2023-01-17T05:09:47.725Z,98827.38
2023-01-17T05:12:14.411Z,98826.63
2023-01-17T05:14:41.147Z,98822.73
2023-01-17T05:17:07.919Z,98831.02
2023-01-17T05:19:34.924Z,98824.85
2023-01-17T05:22:04.038Z,98824.48
2023-01-17T05:24:31.532Z,98824.74
2023-01-17T05:27:03.137Z,98820.71
2023-01-17T05:29:30.531Z,98818.95
2023-01-17T05:31:57.330Z,98815.32
2023-01-17T05:34:24.089Z,98819.60
2023-01-17T05:36:50.973Z,98816.52
2023-01-17T05:39:17.716Z,98814.53
2023-01-17T05:41:45.052Z,98816.17
2023-01-17T05:44:11.801Z,98815.73
2023-01-17T05:46:38.723Z,98814.15
2023-01-17T05:49:05.714Z,98819.49
2023-01-17T05:51:32.721Z,98815.48
2023-01-17T05:53:59.387Z,98816.14
2023-01-17T05:56:26.179Z,98819.89
2023-01-17T05:58:52.854Z,98819.70
2023-01-17T06:01:19.724Z,98817.92
2023-01-17T06:03:46.442Z,98823.80
2023-01-17T06:06:13.310Z,98826.88
2023-01-17T06:08:40.060Z,98837.89
2023-01-17T06:11:06.714Z,98842.69
2023-01-17T06:13:33.619Z,98845.42
2023-01-17T06:16:02.938Z,98846.70
2023-01-17T06:18:33.113Z,98847.52
2023-01-17T06:20:59.942Z,98848.98
2023-01-17T06:23:27.045Z,98854.79
2023-01-17T06:25:53.746Z,98852.66
2023-01-17T06:28:21.801Z,98847.74
2023-01-17T06:30:48.874Z,98857.79
2023-01-17T06:33:15.765Z,98855.79
2023-01-17T06:35:49.910Z,98853.73
2023-01-17T06:38:16.855Z,98853.42
2023-01-17T06:40:43.607Z,98847.82
2023-01-17T06:43:10.619Z,98854.79
2023-01-17T06:45:37.494Z,98852.66
2023-01-17T06:48:05.272Z,98858.16
2023-01-17T06:50:32.680Z,98861.86
2023-01-17T06:53:04.357Z,98863.91
2023-01-17T06:55:31.615Z,98864.80
2023-01-17T06:58:00.584Z,98864.35
2023-01-17T07:00:27.593Z,98864.55
2023-01-17T07:02:54.533Z,98863.88
2023-01-17T07:05:21.342Z,98862.02
2023-01-17T07:07:48.326Z,98859.48
2023-01-17T07:10:15.503Z,98860.02
2023-01-17T07:12:42.235Z,98863.16
2023-01-17T07:15:09.668Z,98861.21
2023-01-17T07:17:36.687Z,98854.15
2023-01-17T07:20:03.840Z,98853.38
2023-01-17T07:22:30.572Z,98850.13
2023-01-17T07:24:58.821Z,98853.81
2023-01-17T07:27:27.719Z,98855.57
2023-01-17T07:29:54.576Z,98853.36
2023-01-17T07:32:21.571Z,98848.26
2023-01-17T07:34:48.726Z,98845.39
2023-01-17T07:37:15.658Z,98848.59
2023-01-17T07:39:42.455Z,98850.20
2023-01-17T07:42:09.368Z,98843.61
2023-01-17T07:44:36.214Z,98845.91
2023-01-17T07:47:04.325Z,98843.56
2023-01-17T07:49:31.174Z,98848.91
2023-01-17T07:51:57.989Z,98846.52
2023-01-17T07:54:24.643Z,98847.22
2023-01-17T07:56:51.331Z,98847.02
2023-01-17T07:59:18.295Z,98843.66
2023-01-17T08:01:45.102Z,98842.37
2023-01-17T08:18:30.819Z,98838.80
2023-01-17T08:20:57.523Z,98836.59
2023-01-17T08:23:24.262Z,98837.77
2023-01-17T08:25:50.984Z,98835.04
2023-01-17T08:28:19.743Z,98836.33
2023-01-17T08:30:46.689Z,98832.36
2023-01-17T08:33:13.372Z,98830.67
2023-01-17T08:35:40.653Z,98826.80
2023-01-17T08:38:07.326Z,98824.14
2023-01-17T08:40:34.051Z,98817.63
2023-01-17T08:43:01.010Z,98815.11
2023-01-17T08:45:27.998Z,98811.77
2023-01-17T08:47:54.835Z,98810.38
2023-01-17T08:50:21.576Z,98804.27
2023-01-17T08:52:49.056Z,98797.52
2023-01-17T08:55:15.896Z,98788.98
2023-01-17T08:57:42.670Z,98791.43
2023-01-17T09:00:12.749Z,98788.12
2023-01-17T09:02:39.425Z,98785.36
2023-01-17T09:05:06.713Z,98783.17
2023-01-17T09:07:33.422Z,98777.67
2023-01-17T09:10:00.125Z,98775.10
2023-01-17T09:12:27.045Z,98771.88
2023-01-17T09:14:53.789Z,98765.29
2023-01-17T09:17:20.518Z,98759.05
2023-01-17T09:19:48.774Z,98755.75
2023-01-17T09:22:15.651Z,98747.77
2023-01-17T09:24:42.454Z,98742.02
2023-01-17T09:27:09.302Z,98736.84
2023-01-17T09:29:35.960Z,98737.29
2023-01-17T09:32:02.925Z,98736.13
2023-01-17T09:34:30.628Z,98730.84
2023-01-17T09:36:57.409Z,98725.42
2023-01-17T09:39:29.062Z,98722.16
2023-01-17T09:42:08.991Z,98727.23
2023-01-17T09:44:48.933Z,98728.98
2023-01-17T09:47:24.829Z,98721.90
2023-01-17T09:49:51.523Z,98722.41
2023-01-17T09:52:19.600Z,98722.27
2023-01-17T09:54:47.601Z,98712.72
2023-01-17T09:57:48.328Z,98712.46
2023-01-17T10:00:18.119Z,98712.57
2023-01-17T10:03:00.099Z,98714.52
2023-01-17T10:05:33.404Z,98712.42
2023-01-17T10:08:27.989Z,98709.53
2023-01-17T10:11:33.241Z,98709.14
2023-01-17T10:14:14.519Z,98705.30
2023-01-17T10:17:16.177Z,98710.19
2023-01-17T10:20:07.820Z,98712.29
2023-01-17T10:22:49.472Z,98711.84
2023-01-17T10:25:16.134Z,98711.38
2023-01-17T10:27:59.648Z,98703.53
2023-01-17T10:30:42.424Z,98701.79
2023-01-17T10:33:16.775Z,98702.73
2023-01-17T10:35:51.575Z,98699.80
2023-01-17T10:38:18.357Z,98692.35
2023-01-17T10:40:50.276Z,98692.55
2023-01-17T10:43:29.147Z,98690.83
2023-01-17T10:45:56.573Z,98687.06
2023-01-17T10:48:38.925Z,98686.95
2023-01-17T10:51:21.913Z,98681.98
2023-01-17T10:54:04.585Z,98674.27
2023-01-17T10:56:31.288Z,98671.00
2023-01-17T10:59:17.802Z,98668.23
2023-01-17T11:01:44.801Z,98668.93
2023-01-17T11:04:16.839Z,98662.05
2023-01-17T11:06:57.758Z,98656.60
2023-01-17T11:09:38.644Z,98650.71
2023-01-17T11:12:05.477Z,98643.80
2023-01-17T11:14:36.006Z,98640.83
2023-01-17T11:17:04.148Z,98635.30
2023-01-17T11:19:32.404Z,98633.16
2023-01-17T11:22:01.753Z,98634.09
2023-01-17T11:24:49.710Z,98629.84
2023-01-17T11:27:26.611Z,98629.08
2023-01-17T11:30:07.444Z,98626.77
2023-01-17T11:32:34.402Z,98627.19
2023-01-17T11:35:13.366Z,98624.71
2023-01-17T11:37:48.788Z,98629.17
2023-01-17T11:40:15.560Z,98623.43
2023-01-17T11:42:42.311Z,98613.48
2023-01-17T11:45:32.190Z,98611.05
2023-01-17T11:48:10.250Z,98606.34
2023-01-17T11:50:56.807Z,98612.02
2023-01-17T11:53:23.590Z,98604.63
2023-01-17T11:55:59.448Z,98599.30
2023-01-17T11:58:27.018Z,98597.27
2023-01-17T12:01:11.201Z,98599.15
2023-01-17T12:03:47.851Z,98600.81
2023-01-17T12:06:58.135Z,98606.00
2023-01-17T12:09:31.601Z,98603.45
2023-01-17T12:12:20.010Z,98600.73
2023-01-17T12:14:58.385Z,98603.91
2023-01-17T12:17:40.298Z,98603.65
2023-01-17T12:20:16.518Z,98597.88
2023-01-17T12:22:46.737Z,98596.19
2023-01-17T12:25:37.603Z,98601.70
2023-01-17T12:28:32.757Z,98613.50
2023-01-17T12:31:14.797Z,98601.36
2023-01-17T12:34:08.177Z,98608.40
2023-01-17T12:36:40.727Z,98613.31
2023-01-17T12:39:10.276Z,98612.21
2023-01-17T12:41:44.749Z,98616.64
2023-01-17T12:44:13.835Z,98616.20
2023-01-17T12:46:44.156Z,98615.81
2023-01-17T12:49:26.852Z,98615.19
2023-01-17T12:51:57.894Z,98616.11
2023-01-17T12:54:33.853Z,98620.58
2023-01-17T12:57:14.073Z,98619.81
2023-01-17T13:00:05.795Z,98620.42
2023-01-17T13:02:37.611Z,98614.02
2023-01-17T13:05:16.473Z,98621.25
2023-01-17T13:07:47.741Z,98622.41
2023-01-17T13:10:26.166Z,98617.42
2023-01-17T13:12:54.001Z,98617.73
2023-01-17T13:15:23.415Z,98619.23
2023-01-17T13:18:11.615Z,98618.22
2023-01-17T13:20:50.547Z,98612.16
2023-01-17T13:23:30.472Z,98607.64
2023-01-17T13:25:58.350Z,98599.76
2023-01-17T13:28:56.209Z,98599.60
2023-01-17T13:31:32.257Z,98596.45
2023-01-17T13:34:12.281Z,98596.20
2023-01-17T13:37:07.237Z,98595.59
2023-01-17T13:39:43.605Z,98591.81
2023-01-17T13:42:11.864Z,98593.48
2023-01-17T13:44:38.876Z,98594.30
2023-01-17T13:47:17.850Z,98595.63
2023-01-17T13:49:49.531Z,98597.48
2023-01-17T13:52:19.265Z,98598.42
2023-01-17T13:55:00.950Z,98595.63
2023-01-17T13:57:29.894Z,98589.81
2023-01-17T13:59:57.482Z,98593.86
2023-01-17T14:02:33.503Z,98590.23
2023-01-17T14:05:21.236Z,98585.34
2023-01-17T14:07:59.286Z,98577.30
2023-01-17T14:10:42.089Z,98575.42
2023-01-17T14:13:34.800Z,98588.38
2023-01-17T14:16:02.519Z,98582.46
2023-01-17T14:18:33.336Z,98584.92
2023-01-17T14:21:11.089Z,98588.17
2023-01-17T14:23:46.942Z,98591.03
2023-01-17T14:26:20.256Z,98600.70
2023-01-17T14:28:46.922Z,98599.79
2023-01-17T14:31:14.064Z,98595.23
2023-01-17T14:33:41.073Z,98590.80
2023-01-17T14:36:15.327Z,98588.02
2023-01-17T14:38:42.623Z,98580.26
2023-01-17T14:41:19.453Z,98577.80
2023-01-17T14:43:47.075Z,98582.30
2023-01-17T14:46:23.122Z,98584.24
2023-01-17T14:48:51.094Z,98585.41
2023-01-17T14:51:22.007Z,98582.59
2023-01-17T14:53:59.054Z,98577.67
2023-01-17T14:56:26.840Z,98576.27
2023-01-17T14:59:17.225Z,98581.42
2023-01-17T15:01:55.200Z,98584.93
2023-01-17T15:04:30.291Z,98581.31
2023-01-17T15:06:57.569Z,98582.23
2023-01-17T15:09:29.769Z,98590.48
2023-01-17T15:11:57.401Z,98590.41
2023-01-17T15:14:25.060Z,98594.19
2023-01-17T15:16:52.155Z,98590.15
2023-01-17T15:19:19.518Z,98580.70
2023-01-17T15:21:47.932Z,98582.41
2023-01-17T15:24:27.601Z,98584.55
2023-01-17T15:26:54.721Z,98580.63
2023-01-17T15:29:25.197Z,98586.54
2023-01-17T15:31:59.301Z,98577.64
2023-01-17T15:34:34.323Z,98579.52
2023-01-17T15:37:20.668Z,98574.44
2023-01-17T15:39:47.429Z,98578.73
2023-01-17T15:42:26.225Z,98581.06
2023-01-17T15:44:58.602Z,98584.85
2023-01-17T15:47:32.364Z,98589.83
2023-01-17T15:49:59.982Z,98591.02
2023-01-17T15:52:27.001Z,98599.74
2023-01-17T15:54:58.752Z,98593.38
2023-01-17T15:57:37.023Z,98585.73
2023-01-17T16:11:10.681Z,98592.38
2023-01-17T16:13:43.336Z,98595.92
2023-01-17T16:16:10.295Z,98595.20
2023-01-17T16:18:37.136Z,98598.29
2023-01-17T16:21:26.622Z,98604.88
2023-01-17T16:23:53.581Z,98610.95
2023-01-17T16:26:20.475Z,98614.64
2023-01-17T16:28:47.187Z,98612.20
2023-01-17T21:20:33.990Z,98845.55
2023-01-17T21:23:00.566Z,98829.88
2023-01-17T21:25:27.133Z,98825.06
2023-01-17T21:27:53.736Z,98825.78
2023-01-17T21:30:20.205Z,98830.60
2023-01-17T21:32:46.774Z,98826.16
2023-01-17T21:35:13.277Z,98822.87
2023-01-17T21:37:40.413Z,98818.80
2023-01-17T21:40:07.693Z,98813.14
2023-01-17T21:42:34.410Z,98810.66
2023-01-17T21:45:01.190Z,98808.92
2023-01-17T21:47:28.358Z,98809.56
2023-01-17T21:49:54.845Z,98812.73
2023-01-17T21:52:21.349Z,98814.80
2023-01-17T21:55:06.487Z,98813.38
2023-01-17T21:57:52.100Z,98816.08
2023-01-17T22:00:18.714Z,98824.54
2023-01-17T22:02:46.405Z,98826.69
2023-01-17T22:05:14.273Z,98828.98
2023-01-17T22:08:00.721Z,98825.80
2023-01-17T22:10:27.534Z,98819.85
2023-01-17T22:12:54.161Z,98817.98
2023-01-17T22:15:20.737Z,98822.53
2023-01-17T22:17:48.162Z,98825.70
2023-01-17T22:20:15.164Z,98828.16
2023-01-17T22:22:47.505Z,98831.66
2023-01-17T22:25:14.839Z,98835.39
2023-01-17T22:27:41.331Z,98833.84
2023-01-17T22:30:12.157Z,98832.98
2023-01-17T22:32:39.022Z,98827.22
2023-01-17T22:35:06.826Z,98822.27
2023-01-17T22:37:36.236Z,98817.80
2023-01-17T22:40:04.403Z,98815.67
2023-01-17T22:42:34.125Z,98816.20
2023-01-17T22:45:00.868Z,98819.71
2023-01-17T22:47:27.880Z,98821.90
2023-01-17T22:49:54.518Z,98817.92
2023-01-17T22:52:21.050Z,98818.71
2023-01-17T22:54:48.267Z,98823.02
2023-01-17T22:57:14.765Z,98829.02
2023-01-17T22:59:41.286Z,98825.18
2023-01-17T23:02:07.874Z,98821.63
2023-01-17T23:04:34.402Z,98823.25
2023-01-17T23:07:01.329Z,98825.94
2023-01-17T23:09:28.298Z,98829.33
2023-01-17T23:11:55.626Z,98831.89
2023-01-17T23:15:07.211Z,98828.59
2023-01-17T23:17:52.876Z,98829.10
2023-01-17T23:20:19.357Z,98830.31
2023-01-17T23:22:46.141Z,98833.09
2023-01-17T23:25:13.179Z,98835.52
2023-01-17T23:28:03.536Z,98834.00
2023-01-17T23:30:35.023Z,98835.73
2023-01-17T23:33:03.655Z,98836.12
2023-01-17T23:35:32.418Z,98837.20
2023-01-17T23:38:17.473Z,98842.45
2023-01-17T23:41:07.776Z,98845.95
2023-01-17T23:43:34.904Z,98853.89
2023-01-17T23:46:01.583Z,98855.40
2023-01-17T23:48:28.528Z,98852.95
2023-01-17T23:50:59.723Z,98852.22
2023-01-17T23:53:26.683Z,98851.11
2023-01-17T23:55:54.614Z,98854.90
2023-01-17T23:58:24.222Z,98860.20
